Time;durP1;ratioP1;P1;durP2;ratioP2;P2;SDS_P1;SDS_P2;PMS_P1;PMS_P2;Temp;Humidity;BMP_temperature;BMP_pressure;BME280_temperature;BME280_humidity;BME280_pressure;Samples;Min_cycle;Max_cycle;Signal;HPM_P1;HPM_P2
2022/08/05 00:02:20;;;;;;;8.63;3.07;;;;;;;26.62;31.54;100481.38;4976845;28;20554;-68
2022/08/05 00:04:48;;;;;;;6.20;3.50;;;;;;;26.62;31.83;100486.91;4993339;28;20122;-68
2022/08/05 00:07:22;;;;;;;6.78;3.20;;;;;;;26.46;32.14;100474.22;4981720;28;20054;-68
2022/08/05 00:10:09;;;;;;;6.05;3.22;;;;;;;26.35;31.84;100467.88;4992771;28;20050;-68
2022/08/05 00:12:36;;;;;;;7.13;3.20;;;;;;;26.32;32.38;100469.22;4993572;28;20046;-68
2022/08/05 00:15:22;;;;;;;8.65;3.42;;;;;;;26.35;32.08;100470.63;4993499;28;20046;-67
2022/08/05 00:18:09;;;;;;;13.18;3.67;;;;;;;26.28;32.43;100468.13;4993202;28;20069;-67
2022/08/05 00:20:47;;;;;;;5.68;3.45;;;;;;;26.23;32.22;100461.78;4993455;28;20387;-67
2022/08/05 00:23:14;;;;;;;7.30;3.53;;;;;;;26.21;32.76;100459.31;4993301;28;20066;-67
2022/08/05 00:25:41;;;;;;;7.20;3.45;;;;;;;26.21;32.49;100466.72;4992299;28;20384;-67
2022/08/05 00:28:12;;;;;;;7.82;3.53;;;;;;;26.21;32.54;100458.50;4992365;28;20046;-67
2022/08/05 00:30:39;;;;;;;9.93;3.80;;;;;;;26.19;32.55;100461.50;4993298;28;20482;-67
2022/08/05 00:33:09;;;;;;;4.88;3.20;;;;;;;26.16;32.56;100462.00;4993487;28;20398;-67
2022/08/05 00:35:56;;;;;;;7.90;3.75;;;;;;;26.11;32.40;100463.91;4994246;28;20046;-67
2022/08/05 00:38:43;;;;;;;7.40;3.70;;;;;;;26.07;32.69;100471.88;4991661;28;20057;-67
2022/08/05 00:41:09;;;;;;;9.23;3.83;;;;;;;26.07;32.86;100475.47;4983646;28;20093;-67
2022/08/05 00:43:37;;;;;;;9.10;3.95;;;;;;;25.99;33.00;100475.97;4991478;28;20218;-67
2022/08/05 00:46:14;;;;;;;4.93;3.60;;;;;;;25.92;32.69;100478.13;4992712;28;20064;-69
2022/08/05 00:48:41;;;;;;;9.93;3.85;;;;;;;25.91;32.73;100476.50;4992543;28;20049;-68
2022/08/05 00:51:18;;;;;;;7.82;4.13;;;;;;;25.93;33.39;100479.81;4992944;28;20046;-67
2022/08/05 00:54:04;;;;;;;6.50;3.53;;;;;;;25.84;33.32;100500.63;4992504;28;20479;-67
2022/08/05 00:56:31;;;;;;;4.53;3.22;;;;;;;25.79;33.61;100498.72;4993261;28;20062;-67
2022/08/05 00:58:58;;;;;;;6.43;3.58;;;;;;;25.80;33.54;100488.53;4993330;28;20109;-68
2022/08/05 01:01:25;;;;;;;8.13;3.85;;;;;;;25.61;34.01;100499.97;4992566;28;20056;-69
2022/08/05 01:04:12;;;;;;;6.07;4.43;;;;;;;25.60;34.65;100495.56;4987835;28;20182;-67
2022/08/05 01:07:21;;;;;;;7.80;5.28;;;;;;;25.56;35.00;100491.69;4977423;28;20054;-68
2022/08/05 01:09:57;;;;;;;16.23;7.03;;;;;;;25.52;35.29;100493.31;4992672;28;20125;-68
2022/08/05 01:12:24;;;;;;;16.55;5.95;;;;;;;25.43;35.88;100500.38;4991406;28;20073;-67
2022/08/05 01:15:01;;;;;;;17.98;8.10;;;;;;;25.35;36.46;100506.38;4991628;28;20537;-67
2022/08/05 01:17:30;;;;;;;16.65;8.02;;;;;;;25.18;36.82;100512.03;4992488;28;20054;-67
2022/08/05 01:20:30;;;;;;;12.77;7.68;;;;;;;25.21;36.97;100505.19;4992315;28;20046;-69
2022/08/05 01:23:39;;;;;;;19.77;7.75;;;;;;;25.03;38.06;100498.19;4991698;28;20073;-69
2022/08/05 01:26:12;;;;;;;14.65;6.78;;;;;;;24.95;38.42;100502.19;4988080;28;20505;-67
2022/08/05 01:28:59;;;;;;;10.25;6.10;;;;;;;24.95;38.63;100506.84;4992262;28;20130;-69
2022/08/05 01:31:45;;;;;;;16.48;6.20;;;;;;;24.76;39.20;100520.13;4990071;28;20050;-69
2022/08/05 01:34:33;;;;;;;12.65;6.07;;;;;;;24.81;39.04;100498.22;4991785;28;20555;-69
2022/08/05 01:37:10;;;;;;;15.18;6.18;;;;;;;24.79;39.18;100501.25;4991396;28;20042;-69
2022/08/05 01:39:55;;;;;;;13.43;5.53;;;;;;;24.73;39.29;100517.91;4991705;28;20046;-69
2022/08/05 01:42:26;;;;;;;15.05;5.70;;;;;;;24.66;39.68;100497.00;4992382;28;20459;-68
2022/08/05 01:44:55;;;;;;;14.88;6.28;;;;;;;24.70;39.88;100499.22;4992554;28;20046;-67
2022/08/05 01:47:25;;;;;;;;;;;;;;;24.71;40.07;100520.06;4992188;28;20046;-67
2022/08/05 01:50:14;;;;;;;12.05;5.40;;;;;;;24.54;40.38;100501.84;4990515;28;19922;-68
2022/08/05 01:52:46;;;;;;;15.68;5.70;;;;;;;24.32;41.46;100503.75;4991189;28;20138;-68
2022/08/05 01:55:19;;;;;;;20.63;6.50;;;;;;;24.41;41.37;100502.25;4990257;28;20046;-67
2022/08/05 01:57:47;;;;;;;15.03;6.13;;;;;;;24.29;41.76;100499.59;4991203;28;20046;-68
2022/08/05 02:00:40;;;;;;;21.98;6.68;;;;;;;24.24;42.33;100491.31;4991514;28;20475;-67
2022/08/05 02:03:45;;;;;;;13.13;6.22;;;;;;;24.14;42.71;100488.47;4991066;28;20050;-67
2022/08/05 02:06:12;;;;;;;17.45;6.03;;;;;;;24.12;42.83;100494.19;4912263;29;20134;-68
2022/08/05 02:08:59;;;;;;;23.35;5.70;;;;;;;24.05;42.94;100498.22;4912555;29;20054;-68
2022/08/05 02:11:36;;;;;;;15.95;5.30;;;;;;;24.03;43.07;100493.00;4913964;29;20078;-68
2022/08/05 02:14:11;;;;;;;;;;;;;;;24.05;43.04;100487.25;4912606;29;20544;-67
2022/08/05 02:16:43;;;;;;;10.97;4.70;;;;;;;23.86;43.34;100484.84;4912808;29;19935;-68
2022/08/05 02:19:21;;;;;;;;;;;;;;;23.82;43.62;100480.13;4913150;29;20059;-67
2022/08/05 02:22:23;;;;;;;19.27;4.65;;;;;;;23.89;43.46;100494.47;4912578;29;21762;-67
2022/08/05 02:25:02;;;;;;;12.93;4.50;;;;;;;23.81;43.57;100495.72;4874712;29;20059;-68
2022/08/05 02:27:32;;;;;;;10.18;4.00;;;;;;;23.62;43.88;100494.34;4911946;29;20127;-69
2022/08/05 02:30:19;;;;;;;14.85;3.80;;;;;;;23.58;43.69;100499.50;4909607;29;20056;-67
2022/08/05 02:32:50;;;;;;;14.68;4.03;;;;;;;23.70;43.62;100499.38;4912397;29;20051;-67
2022/08/05 02:35:19;;;;;;;9.73;3.90;;;;;;;23.63;43.87;100504.22;4913071;29;20048;-67
2022/08/05 02:37:55;;;;;;;12.60;3.50;;;;;;;23.66;43.67;100501.78;4912834;29;20044;-68
2022/08/05 02:40:25;;;;;;;13.13;4.00;;;;;;;23.52;43.91;100505.97;4952224;28;20046;-69
2022/08/05 02:42:54;;;;;;;13.35;3.60;;;;;;;23.56;44.05;100501.66;4991673;28;20109;-67
2022/08/05 02:45:23;;;;;;;6.13;3.65;;;;;;;23.63;43.60;100496.81;4991067;28;20483;-67
2022/08/05 02:47:53;;;;;;;19.83;3.72;;;;;;;23.66;43.66;100500.97;4974284;28;20483;-67
2022/08/05 02:50:41;;;;;;;13.48;3.15;;;;;;;23.67;43.55;100503.44;4991109;28;20047;-67
2022/08/05 02:53:11;;;;;;;17.55;3.92;;;;;;;23.69;43.51;100495.81;4991711;28;20483;-67
2022/08/05 02:55:49;;;;;;;12.65;3.10;;;;;;;23.57;43.80;100492.34;4991222;28;20490;-67
2022/08/05 02:58:27;;;;;;;11.30;3.20;;;;;;;23.49;44.11;100492.78;4991753;28;20121;-67
2022/08/05 03:00:59;;;;;;;17.95;3.17;;;;;;;23.42;43.99;100489.41;4982125;28;20402;-67
2022/08/05 03:03:29;;;;;;;8.63;3.50;;;;;;;23.30;44.77;100488.69;4987845;28;20050;-67
2022/08/05 03:06:00;;;;;;;8.55;3.78;;;;;;;23.14;44.90;100477.50;4990382;28;20049;-68
2022/08/05 03:08:50;;;;;;;8.10;2.83;;;;;;;23.16;44.59;100480.81;4990978;28;20488;-68
2022/08/05 03:11:21;;;;;;;12.45;3.22;;;;;;;23.01;44.35;100480.53;4989608;28;20486;-68
2022/08/05 03:14:08;;;;;;;10.43;3.10;;;;;;;23.07;44.67;100475.97;4990945;28;20046;-68
2022/08/05 03:16:39;;;;;;;9.45;3.28;;;;;;;22.95;45.16;100468.69;4989056;28;20108;-68
2022/08/05 03:19:05;;;;;;;9.25;3.03;;;;;;;22.92;45.06;100469.19;4990341;28;20046;-68
2022/08/05 03:21:52;;;;;;;7.72;2.90;;;;;;;22.84;45.81;100460.53;4989815;28;20054;-68
2022/08/05 03:24:20;;;;;;;7.20;2.88;;;;;;;22.99;45.21;100469.03;4992496;28;20138;-67
2022/08/05 03:26:55;;;;;;;8.73;2.88;;;;;;;22.95;45.36;100465.94;4993049;28;20046;-68
2022/08/05 03:29:22;;;;;;;16.45;3.30;;;;;;;22.69;45.97;100472.06;4993808;28;20046;-68
2022/08/05 03:31:49;;;;;;;11.70;3.35;;;;;;;22.86;45.77;100461.97;4993930;28;20081;-67
2022/08/05 03:34:27;;;;;;;7.03;2.80;;;;;;;22.67;46.02;100464.13;4990179;28;20093;-69
2022/08/05 03:36:54;;;;;;;8.15;3.30;;;;;;;22.54;46.64;100467.16;4984865;28;20146;-68
2022/08/05 03:39:21;;;;;;;7.72;3.25;;;;;;;22.55;46.52;100474.28;4993248;28;20046;-67
2022/08/05 03:41:53;;;;;;;12.10;3.13;;;;;;;22.71;45.81;100476.22;4993450;28;20042;-67
2022/08/05 03:44:22;;;;;;;11.95;3.50;;;;;;;22.59;46.53;100472.72;4993827;28;20096;-68
2022/08/05 03:46:48;;;;;;;7.15;3.50;;;;;;;22.62;46.54;100477.69;4993092;28;20129;-67
2022/08/05 03:49:15;;;;;;;10.18;3.05;;;;;;;22.29;47.10;100479.25;4993378;28;20054;-68
2022/08/05 03:51:50;;;;;;;8.52;2.80;;;;;;;22.42;47.05;100480.84;4993853;28;20134;-67
2022/08/05 03:54:41;;;;;;;5.95;3.25;;;;;;;22.41;46.99;100484.66;4993168;28;20072;-68
2022/08/05 03:57:32;;;;;;;7.95;3.47;;;;;;;22.52;46.71;100491.16;4994152;28;20138;-67
2022/08/05 04:00:10;;;;;;;10.35;3.80;;;;;;;22.55;46.82;100491.50;4975068;28;20101;-67
2022/08/05 04:02:44;;;;;;;4.40;3.10;;;;;;;22.80;45.75;100496.59;4993609;28;20050;-68
2022/08/05 04:05:26;;;;;;;11.32;3.45;;;;;;;22.91;45.58;100497.59;4993396;28;20046;-68
2022/08/05 04:08:02;;;;;;;9.25;3.25;;;;;;;22.82;45.75;100499.09;4993244;28;20050;-67
2022/08/05 04:10:32;;;;;;;10.52;3.08;;;;;;;22.77;45.94;100488.06;4993171;28;20443;-67
2022/08/05 04:13:06;;;;;;;9.15;3.17;;;;;;;22.74;45.78;100486.66;4993372;28;20402;-67
2022/08/05 04:15:32;;;;;;;12.90;3.58;;;;;;;22.58;46.75;100487.47;4992564;28;20487;-67
2022/08/05 04:18:05;;;;;;;11.90;3.28;;;;;;;22.84;45.66;100487.91;4991955;28;20132;-69
2022/08/05 04:20:35;;;;;;;7.28;3.40;;;;;;;22.94;45.50;100488.06;4992123;28;20410;-68
2022/08/05 04:23:01;;;;;;;15.15;3.60;;;;;;;22.87;45.72;100484.66;4993191;28;20065;-68
2022/08/05 04:25:29;;;;;;;5.50;3.47;;;;;;;22.97;45.25;100484.84;4992728;28;20069;-68
2022/08/05 04:28:16;;;;;;;5.63;3.00;;;;;;;23.02;45.01;100498.63;4992429;28;20410;-68
2022/08/05 04:30:43;;;;;;;10.75;3.25;;;;;;;23.18;45.22;100499.72;4992460;28;20050;-68
2022/08/05 04:33:09;;;;;;;8.38;3.33;;;;;;;23.16;45.11;100501.88;4992071;28;20050;-69
2022/08/05 04:35:36;;;;;;;17.25;3.60;;;;;;;23.13;45.13;100505.94;4991643;28;20133;-69
2022/08/05 04:38:23;;;;;;;5.63;3.20;;;;;;;23.25;44.94;100509.41;4992988;28;20042;-68
2022/08/05 04:41:06;;;;;;;6.47;3.42;;;;;;;23.27;44.91;100507.25;4992408;28;20129;-68
2022/08/05 04:43:36;;;;;;;7.40;3.08;;;;;;;23.16;45.08;100516.38;4992496;28;20050;-68
2022/08/05 04:46:03;;;;;;;7.95;3.63;;;;;;;23.30;45.41;100513.31;4991217;28;20133;-68
2022/08/05 04:48:31;;;;;;;7.00;2.90;;;;;;;23.36;44.78;100510.38;4992576;28;20064;-68
2022/08/05 04:50:57;;;;;;;7.32;3.20;;;;;;;23.49;44.73;100510.03;4993365;28;20062;-69
2022/08/05 04:53:36;;;;;;;9.07;3.42;;;;;;;23.29;45.47;100498.78;4992087;28;20074;-68
2022/08/05 04:56:06;;;;;;;9.23;3.30;;;;;;;23.34;45.46;100495.31;4991656;28;20482;-68
2022/08/05 04:58:53;;;;;;;4.65;2.83;;;;;;;23.10;46.03;100503.66;4992125;28;20056;-69
2022/08/05 05:01:19;;;;;;;5.03;3.10;;;;;;;23.08;46.11;100511.28;4974325;28;20092;-68
2022/08/05 05:04:06;;;;;;;7.25;3.42;;;;;;;22.93;46.63;100508.31;4991522;28;20046;-69
2022/08/05 05:06:32;;;;;;;8.23;3.85;;;;;;;23.19;46.05;100513.16;4991374;28;20450;-68
2022/08/05 05:09:11;;;;;;;12.73;3.50;;;;;;;23.34;46.08;100519.94;4990849;28;20074;-68
2022/08/05 05:11:43;;;;;;;11.73;3.63;;;;;;;23.20;45.99;100520.28;4992154;28;20133;-68
2022/08/05 05:14:23;;;;;;;9.95;3.60;;;;;;;23.40;45.71;100524.41;4977030;28;20066;-68
2022/08/05 05:17:00;;;;;;;16.98;4.03;;;;;;;23.28;45.95;100521.75;4991832;28;20046;-67
2022/08/05 05:19:29;;;;;;;12.18;3.42;;;;;;;23.45;45.75;100532.72;4992656;28;20204;-67
2022/08/05 05:22:10;;;;;;;12.50;3.30;;;;;;;23.62;45.29;100539.00;4992070;28;20046;-67
2022/08/05 05:24:50;;;;;;;10.60;3.47;;;;;;;23.56;45.37;100548.19;4992115;28;20424;-67
2022/08/05 05:27:26;;;;;;;10.15;3.53;;;;;;;23.42;45.77;100555.09;4992061;28;20050;-67
2022/08/05 05:30:14;;;;;;;11.27;3.40;;;;;;;23.42;45.99;100577.00;4991419;28;20050;-67
2022/08/05 05:32:55;;;;;;;15.20;3.55;;;;;;;23.42;45.67;100597.00;4990755;28;20133;-68
2022/08/05 05:35:26;;;;;;;10.40;3.45;;;;;;;23.47;45.61;100597.09;4992167;28;20298;-67
2022/08/05 05:37:56;;;;;;;10.38;3.60;;;;;;;23.55;45.60;100582.16;4990259;28;20066;-68
2022/08/05 05:40:28;;;;;;;6.50;3.08;;;;;;;23.56;45.45;100572.03;4990851;28;20101;-68
2022/08/05 05:42:56;;;;;;;6.65;3.70;;;;;;;23.44;45.72;100578.41;4991350;28;20483;-68
2022/08/05 05:45:22;;;;;;;8.90;3.20;;;;;;;23.55;46.87;100581.31;4992308;28;20133;-67
2022/08/05 05:47:50;;;;;;;5.13;3.17;;;;;;;23.36;46.35;100588.94;4990934;28;20053;-69
2022/08/05 05:50:35;;;;;;;11.68;3.60;;;;;;;23.24;46.60;100586.28;4991693;28;20046;-68
2022/08/05 05:53:10;;;;;;;9.98;3.58;;;;;;;23.25;46.20;100596.16;4988821;28;20053;-69
2022/08/05 05:55:49;;;;;;;9.52;3.53;;;;;;;23.21;46.63;100614.16;4990727;28;20051;-69
2022/08/05 05:58:26;;;;;;;7.43;3.08;;;;;;;23.08;47.30;100639.88;4991814;28;20554;-69
2022/08/05 06:00:58;;;;;;;5.43;3.33;;;;;;;23.13;47.03;100655.63;4990749;28;20449;-69
2022/08/05 06:03:39;;;;;;;14.10;3.88;;;;;;;23.34;46.76;100645.88;4990752;28;20458;-69
2022/08/05 06:06:26;;;;;;;6.75;3.50;;;;;;;23.28;47.01;100642.19;4991002;28;20057;-69
2022/08/05 06:08:56;;;;;;;8.98;3.58;;;;;;;23.24;47.15;100636.38;4991578;28;20042;-68
2022/08/05 06:11:22;;;;;;;6.28;3.88;;;;;;;23.17;47.22;100654.88;4991017;28;20133;-68
2022/08/05 06:13:49;;;;;;;6.20;3.30;;;;;;;23.25;47.79;100665.41;4990973;28;20053;-68
2022/08/05 06:16:20;;;;;;;11.23;3.17;;;;;;;23.03;48.41;100669.91;4981855;28;20129;-68
2022/08/05 06:18:57;;;;;;;4.75;3.05;;;;;;;23.11;48.10;100674.97;4990610;28;20141;-67
2022/08/05 06:21:26;;;;;;;5.90;3.08;;;;;;;23.13;48.49;100681.06;4990756;28;20493;-68
2022/08/05 06:24:03;;;;;;;6.78;2.85;;;;;;;23.02;48.65;100687.41;4991731;28;20137;-68
2022/08/05 06:26:31;;;;;;;5.32;2.65;;;;;;;23.21;48.14;100679.84;4991090;28;20479;-67
2022/08/05 06:29:00;;;;;;;7.65;2.88;;;;;;;23.07;48.76;100676.53;4991888;28;20046;-67
2022/08/05 06:31:46;;;;;;;5.70;2.80;;;;;;;23.15;48.58;100661.66;4990743;28;20057;-67
2022/08/05 06:34:16;;;;;;;3.67;2.45;;;;;;;23.32;48.54;100658.97;4991036;28;20050;-67
2022/08/05 06:36:45;;;;;;;7.03;2.60;;;;;;;23.38;48.56;100653.31;4992060;28;20077;-66
2022/08/05 06:39:24;;;;;;;10.30;3.05;;;;;;;23.17;49.12;100643.09;4990982;28;20078;-67
2022/08/05 06:41:56;;;;;;;6.80;2.75;;;;;;;23.18;49.08;100631.06;4990376;28;20038;-67
2022/08/05 06:44:24;;;;;;;5.43;2.45;;;;;;;23.23;49.02;100634.75;4991314;28;20056;-67
2022/08/05 06:46:51;;;;;;;6.40;2.90;;;;;;;23.49;48.68;100652.41;4990436;28;20068;-67
2022/08/05 06:49:19;;;;;;;5.90;2.90;;;;;;;23.44;48.46;100649.59;4989656;28;20061;-67
2022/08/05 06:52:06;;;;;;;8.65;2.55;;;;;;;23.41;48.67;100660.22;4991478;28;20150;-67
2022/08/05 06:54:52;;;;;;;5.05;2.72;;;;;;;23.54;48.59;100651.69;4989147;28;20042;-67
2022/08/05 06:57:19;;;;;;;6.47;2.50;;;;;;;23.54;48.30;100648.09;4990268;28;20078;-67
2022/08/05 07:00:06;;;;;;;15.20;2.88;;;;;;;23.27;48.77;100641.38;4994948;28;20042;-69
2022/08/05 07:02:44;;;;;;;8.52;2.90;;;;;;;23.21;49.44;100647.00;4994510;28;20537;-69
2022/08/05 07:05:12;;;;;;;8.43;2.53;;;;;;;23.39;49.03;100651.41;4993866;28;20057;-69
2022/08/05 07:07:47;;;;;;;8.90;2.90;;;;;;;23.37;48.86;100661.81;4993672;28;20117;-69
2022/08/05 07:10:14;;;;;;;15.30;2.50;;;;;;;23.47;48.40;100659.25;4995190;28;20074;-69
2022/08/05 07:18:30;;;;;;;4.43;2.50;;;;;;;23.22;49.00;100706.94;4993671;28;20141;-69
2022/08/05 07:20:57;;;;;;;4.18;2.13;;;;;;;23.44;48.82;100711.75;4993994;28;20069;-69
2022/08/05 07:23:30;;;;;;;12.63;2.55;;;;;;;23.14;49.08;100718.31;4993957;28;20074;-69
2022/08/05 07:25:57;;;;;;;4.32;2.33;;;;;;;23.47;48.73;100712.09;4992574;28;20066;-69
2022/08/05 07:28:25;;;;;;;9.45;2.47;;;;;;;23.54;48.47;100711.06;4993156;28;20129;-69
2022/08/05 07:30:51;;;;;;;5.75;2.20;;;;;;;23.31;48.88;100707.41;4993512;28;20046;-68
2022/08/05 07:33:21;;;;;;;5.55;2.45;;;;;;;23.40;48.96;100691.41;4993459;28;20054;-69
2022/08/05 07:36:03;;;;;;;5.65;2.70;;;;;;;23.26;49.57;100699.06;4978779;28;20042;-68
2022/08/05 07:38:47;;;;;;;12.48;2.65;;;;;;;23.23;49.75;100684.00;4994288;28;20065;-69
2022/08/05 07:41:22;;;;;;;8.68;2.80;;;;;;;23.42;49.40;100676.38;4986452;28;20120;-69
2022/08/05 07:44:08;;;;;;;4.32;2.47;;;;;;;23.07;49.83;100684.75;4994311;28;20050;-69
2022/08/05 07:46:45;;;;;;;8.00;3.10;;;;;;;23.08;49.99;100699.25;4993559;28;20058;-69
2022/08/05 07:49:15;;;;;;;7.90;2.40;;;;;;;23.26;49.38;100699.94;4993919;28;20056;-67
2022/08/05 07:51:43;;;;;;;8.77;2.58;;;;;;;23.23;49.37;100700.41;4994068;28;20050;-69
2022/08/05 07:54:25;;;;;;;11.10;3.30;;;;;;;23.30;49.28;100680.28;4984459;28;20069;-69
2022/08/05 07:57:01;;;;;;;6.30;3.17;;;;;;;23.09;49.91;100681.75;4993329;28;20504;-69
2022/08/05 07:59:48;;;;;;;7.35;2.35;;;;;;;23.02;50.50;100679.19;4992511;28;20042;-69
2022/08/05 08:02:14;;;;;;;9.00;2.70;;;;;;;23.03;50.45;100683.59;4994025;28;20140;-68
2022/08/05 08:04:47;;;;;;;10.35;2.90;;;;;;;23.22;50.21;100681.50;4993556;28;20517;-68
2022/08/05 08:07:15;;;;;;;;;;;;;;;22.83;51.16;100683.19;4993673;28;20406;-68
2022/08/05 08:09:43;;;;;;;10.20;3.17;;;;;;;22.91;51.08;100677.31;4993205;28;19922;-70
2022/08/05 08:12:12;;;;;;;8.15;3.10;;;;;;;23.05;51.05;100675.94;4993898;28;20050;-69
2022/08/05 08:14:59;;;;;;;8.60;3.00;;;;;;;22.90;51.32;100668.28;4993577;28;20048;-68
2022/08/05 08:17:30;;;;;;;11.02;3.00;;;;;;;23.03;50.73;100668.00;4984846;28;20057;-69
2022/08/05 08:19:56;;;;;;;5.97;2.63;;;;;;;23.28;49.69;100666.84;4991995;28;20073;-69
2022/08/05 08:22:43;;;;;;;6.65;3.13;;;;;;;23.23;49.97;100651.16;4992841;28;20405;-69
2022/08/05 08:25:09;;;;;;;10.07;3.30;;;;;;;23.16;50.32;100644.19;4994069;28;20066;-69
2022/08/05 08:27:42;;;;;;;12.10;3.28;;;;;;;23.21;49.53;100645.09;4993712;28;20042;-68
2022/08/05 08:30:14;;;;;;;4.55;2.60;;;;;;;23.00;50.14;100659.44;4992985;28;20070;-68
2022/08/05 08:32:55;;;;;;;9.25;3.78;;;;;;;22.99;50.11;100683.25;4992181;28;20047;-68
2022/08/05 08:35:23;;;;;;;3.10;2.50;;;;;;;23.05;49.43;100711.50;4993016;28;20054;-69
2022/08/05 08:37:52;;;;;;;11.25;2.80;;;;;;;23.13;49.46;100716.66;4992411;28;20153;-69
2022/08/05 08:40:22;;;;;;;14.52;2.60;;;;;;;22.92;49.80;100703.63;4992572;28;20498;-68
2022/08/05 08:42:51;;;;;;;9.38;3.03;;;;;;;23.11;49.12;100707.81;4992343;28;20050;-68
2022/08/05 08:45:20;;;;;;;9.23;2.88;;;;;;;23.31;48.89;100712.06;4992656;28;20057;-69
2022/08/05 08:47:53;;;;;;;6.47;2.67;;;;;;;22.96;49.83;100726.66;4993260;28;20077;-69
2022/08/05 08:50:41;;;;;;;8.43;2.47;;;;;;;23.02;49.25;100728.44;4974190;28;20049;-69
2022/08/05 08:53:34;;;;;;;7.28;2.58;;;;;;;23.05;49.22;100711.50;4991790;28;20046;-69
2022/08/05 08:56:03;;;;;;;5.15;2.60;;;;;;;23.00;49.25;100728.66;4992921;28;20513;-68
2022/08/05 08:58:32;;;;;;;6.32;2.40;;;;;;;23.05;49.09;100736.13;4992088;28;20050;-68
2022/08/05 09:01:13;;;;;;;8.30;2.80;;;;;;;23.15;49.83;100751.97;4993685;28;20043;-68
2022/08/05 09:03:48;;;;;;;6.53;2.53;;;;;;;22.96;50.30;100763.06;4992899;28;20042;-68
2022/08/05 09:06:22;;;;;;;6.43;2.30;;;;;;;22.96;50.84;100756.75;4989916;28;20129;-68
2022/08/05 09:08:56;;;;;;;13.40;2.78;;;;;;;22.95;51.10;100752.38;4992416;28;20117;-68
2022/08/05 09:11:23;;;;;;;7.93;2.80;;;;;;;23.00;51.05;100755.19;4991782;28;20105;-68
2022/08/05 09:14:10;;;;;;;9.68;2.25;;;;;;;22.77;51.79;100758.81;4993027;28;20051;-68
2022/08/05 09:17:02;;;;;;;9.80;2.60;;;;;;;22.96;50.76;100759.50;4991605;28;20038;-69
2022/08/05 09:19:29;;;;;;;13.52;3.03;;;;;;;22.88;51.16;100759.84;4991639;28;20100;-67
2022/08/05 09:22:16;;;;;;;8.63;2.67;;;;;;;23.32;49.94;100752.84;4990075;28;20418;-68
2022/08/05 09:25:01;;;;;;;23.73;4.82;;;;;;;23.38;49.26;100762.00;4992640;28;20042;-67
2022/08/05 09:27:48;;;;;;;4.57;2.08;;;;;;;23.50;49.02;100762.75;4992156;28;20383;-67
2022/08/05 09:30:33;;;;;;;10.13;2.60;;;;;;;23.83;47.89;100753.00;4991845;28;20495;-68
2022/08/05 09:33:03;;;;;;;8.23;2.65;;;;;;;23.81;47.61;100766.09;4989653;28;20042;-68
2022/08/05 09:35:30;;;;;;;6.13;2.40;;;;;;;23.97;47.15;100770.75;4985139;28;20053;-68
2022/08/05 09:37:59;;;;;;;8.40;2.00;;;;;;;23.93;47.14;100773.16;4992241;28;20049;-68
2022/08/05 09:40:44;;;;;;;10.40;2.00;;;;;;;23.96;47.01;100771.84;4992620;28;20069;-68
2022/08/05 09:43:29;;;;;;;6.90;2.55;;;;;;;23.79;47.23;100766.34;4992177;28;20050;-68
2022/08/05 09:46:22;;;;;;;9.90;2.60;;;;;;;23.96;46.62;100763.63;4991723;28;20465;-68
2022/08/05 09:48:55;;;;;;;10.75;2.67;;;;;;;23.69;47.09;100731.34;4991574;28;20085;-67
2022/08/05 09:51:41;;;;;;;11.93;2.38;;;;;;;23.83;46.57;100733.81;4992526;28;20471;-68
2022/08/05 09:54:08;;;;;;;4.32;2.08;;;;;;;23.60;47.01;100724.63;4984463;28;20121;-68
2022/08/05 09:56:37;;;;;;;4.10;2.17;;;;;;;23.83;47.13;100715.47;4991917;28;20057;-69
2022/08/05 09:59:07;;;;;;;4.68;1.83;;;;;;;23.39;49.06;100715.19;4991989;28;20125;-68
2022/08/05 10:01:37;;;;;;;7.75;2.10;;;;;;;22.99;50.80;100693.34;4991937;28;20450;-69
2022/08/05 10:04:13;;;;;;;4.13;2.40;;;;;;;22.38;51.89;100671.00;4991854;28;20038;-70
2022/08/05 10:06:53;;;;;;;10.30;2.50;;;;;;;21.81;53.68;100666.16;4990873;28;20054;-69
2022/08/05 10:09:25;;;;;;;13.65;3.25;;;;;;;22.11;52.79;100681.59;4989814;28;20387;-69
2022/08/05 10:12:08;;;;;;;15.18;2.60;;;;;;;22.61;51.20;100697.50;4990096;28;20121;-69
2022/08/05 10:15:12;;;;;;;7.85;3.35;;;;;;;22.81;51.47;100697.09;4991389;28;20413;-69
2022/08/05 10:17:43;;;;;;;9.02;2.70;;;;;;;23.07;50.46;100716.75;4992057;28;20053;-68
2022/08/05 10:20:22;;;;;;;7.25;2.70;;;;;;;23.35;49.63;100722.25;4991046;28;20038;-68
2022/08/05 10:22:51;;;;;;;7.15;2.53;;;;;;;23.44;48.71;100711.75;4991013;28;20074;-70
2022/08/05 10:25:18;;;;;;;6.93;2.58;;;;;;;23.46;48.59;100731.47;4991170;28;20508;-69
2022/08/05 10:27:46;;;;;;;9.70;2.22;;;;;;;23.59;48.08;100741.31;4987651;28;20052;-69
2022/08/05 10:30:35;;;;;;;6.10;2.05;;;;;;;23.71;48.14;100755.75;4990400;28;20046;-68
2022/08/05 10:33:24;;;;;;;8.98;2.80;;;;;;;23.84;47.55;100762.84;4992100;28;20417;-69
2022/08/05 10:35:55;;;;;;;9.90;2.58;;;;;;;23.91;47.83;100782.72;4995760;28;20073;-69
2022/08/05 10:38:27;;;;;;;9.20;2.33;;;;;;;23.84;48.56;100790.25;4995167;28;20054;-68
2022/08/05 10:41:16;;;;;;;10.10;2.60;;;;;;;23.78;49.88;100772.06;4986773;28;20046;-69
2022/08/05 10:43:59;;;;;;;15.00;3.70;;;;;;;23.66;51.07;100748.28;4994447;28;20050;-68
2022/08/05 10:46:42;;;;;;;7.55;2.70;;;;;;;23.80;51.47;100742.53;4994565;28;20081;-70
2022/08/05 10:49:09;;;;;;;9.52;2.50;;;;;;;23.79;49.56;100746.34;4995711;28;20118;-69
2022/08/05 10:51:56;;;;;;;4.82;2.40;;;;;;;23.90;50.16;100757.22;4996270;28;20042;-69
2022/08/05 10:54:47;;;;;;;5.43;2.63;;;;;;;23.99;50.78;100757.66;4995274;28;20476;-69
2022/08/05 10:57:27;;;;;;;6.47;2.85;;;;;;;24.07;50.53;100746.25;4994798;28;20057;-69
2022/08/05 11:00:20;;;;;;;7.82;3.35;;;;;;;24.14;50.99;100738.69;4990955;28;20042;-69
2022/08/05 11:03:14;;;;;;;6.50;2.92;;;;;;;24.04;50.55;100738.53;4994526;28;20454;-69
2022/08/05 11:06:12;;;;;;;14.52;3.40;;;;;;;24.13;49.90;100731.56;4994471;28;20454;-69
2022/08/05 11:09:20;;;;;;;5.78;2.60;;;;;;;24.32;48.39;100725.81;4994349;28;20046;-67
2022/08/05 11:12:25;;;;;;;10.38;2.30;;;;;;;24.37;47.95;100736.81;4991241;28;20054;-67
2022/08/05 11:15:19;;;;;;;6.75;2.25;;;;;;;24.39;47.32;100730.06;4994615;28;20089;-67
2022/08/05 11:18:04;;;;;;;11.63;2.42;;;;;;;24.35;47.64;100741.75;4995160;28;20121;-68
2022/08/05 11:20:44;;;;;;;8.77;2.28;;;;;;;24.54;46.46;100762.38;4994495;28;20057;-68
2022/08/05 11:23:46;;;;;;;9.40;2.80;;;;;;;24.79;45.83;100761.88;4994418;28;20050;-68
2022/08/05 11:26:32;;;;;;;6.13;1.87;;;;;;;24.84;45.13;100766.59;4994500;28;20054;-68
2022/08/05 11:29:04;;;;;;;14.82;2.15;;;;;;;26.05;42.34;100760.78;4993749;28;20761;-68
2022/08/05 11:31:39;;;;;;;7.13;2.35;;;;;;;25.52;43.29;100765.22;4993860;28;20062;-68
2022/08/05 11:34:37;;;;;;;11.40;2.17;;;;;;;26.35;41.79;100770.41;4993304;28;20136;-68
2022/08/05 11:37:04;;;;;;;3.28;2.25;;;;;;;26.34;41.56;100771.47;4994050;28;20474;-68
2022/08/05 11:39:51;;;;;;;7.25;1.75;;;;;;;25.70;43.25;100776.97;4979615;28;20046;-69
2022/08/05 11:42:26;;;;;;;4.32;2.03;;;;;;;26.26;42.23;100774.72;4993549;28;20053;-69
2022/08/05 11:45:01;;;;;;;8.80;2.60;;;;;;;26.87;40.67;100769.63;4993287;28;20069;-69
2022/08/05 11:47:30;;;;;;;3.83;2.22;;;;;;;27.21;39.84;100770.03;4993881;28;20053;-70
2022/08/05 11:50:16;;;;;;;4.35;2.13;;;;;;;27.63;38.43;100765.47;4993947;28;20074;-69
2022/08/05 11:52:43;;;;;;;5.70;1.85;;;;;;;26.67;40.82;100763.97;4994358;28;20093;-69
2022/08/05 11:55:15;;;;;;;6.13;1.90;;;;;;;26.76;40.55;100765.16;4993871;28;20081;-69
2022/08/05 11:57:45;;;;;;;7.28;2.10;;;;;;;26.08;41.49;100762.19;4993682;28;20077;-69
2022/08/05 12:00:31;;;;;;;7.07;1.92;;;;;;;26.07;41.72;100769.63;4993016;28;20046;-69
2022/08/05 12:03:40;;;;;;;9.55;2.50;;;;;;;26.32;41.11;100758.00;4993726;28;20046;-69
2022/08/05 12:06:23;;;;;;;5.22;2.17;;;;;;;26.32;41.43;100747.00;4981038;28;20053;-69
2022/08/05 12:08:53;;;;;;;6.22;2.88;;;;;;;26.78;41.07;100750.03;4993544;28;20093;-69
2022/08/05 12:11:27;;;;;;;6.75;2.25;;;;;;;26.75;40.16;100755.22;4993405;28;20055;-70
2022/08/05 12:14:08;;;;;;;4.80;2.30;;;;;;;26.43;41.21;100756.13;4993297;28;20494;-69